sensor_id;sensor_type;location;lat;lon;timestamp;pressure;altitude;pressure_sealevel;temperature;humidity
61674;BME280;47573;43.832;5.974;2023-11-18T00:05:32;95695.47;;;24.09;64.93
61674;BME280;47573;43.832;5.974;2023-11-18T00:12:13;95685.88;;;24.07;64.54
61674;BME280;47573;43.832;5.974;2023-11-18T00:18:56;95689.09;;;24.04;64.42
61674;BME280;47573;43.832;5.974;2023-11-18T00:25:36;95686.22;;;23.98;64.39
61674;BME280;47573;43.832;5.974;2023-11-18T00:32:20;95683.94;;;23.95;64.34
61674;BME280;47573;43.832;5.974;2023-11-18T00:39:02;95695.34;;;23.92;64.13
61674;BME280;47573;43.832;5.974;2023-11-18T00:45:44;95696.66;;;23.90;64.13
61674;BME280;47573;43.832;5.974;2023-11-18T00:52:25;95700.09;;;23.85;64.08
61674;BME280;47573;43.832;5.974;2023-11-18T00:59:07;95694.63;;;23.85;64.31
61674;BME280;47573;43.832;5.974;2023-11-18T01:05:47;95700.00;;;23.80;64.00
61674;BME280;47573;43.832;5.974;2023-11-18T01:12:28;95713.03;;;23.78;63.95
61674;BME280;47573;43.832;5.974;2023-11-18T01:19:10;95729.88;;;23.75;63.93
61674;BME280;47573;43.832;5.974;2023-11-18T01:25:51;95715.06;;;23.71;64.06
61674;BME280;47573;43.832;5.974;2023-11-18T01:32:31;95685.31;;;23.70;63.86
61674;BME280;47573;43.832;5.974;2023-11-18T01:39:13;95699.19;;;23.68;63.44
61674;BME280;47573;43.832;5.974;2023-11-18T01:45:54;95690.88;;;23.63;63.18
61674;BME280;47573;43.832;5.974;2023-11-18T01:52:35;95716.97;;;23.59;63.55
61674;BME280;47573;43.832;5.974;2023-11-18T01:59:17;95724.06;;;23.60;63.39
61674;BME280;47573;43.832;5.974;2023-11-18T02:05:58;95717.66;;;23.55;63.32
61674;BME280;47573;43.832;5.974;2023-11-18T02:12:44;95739.72;;;23.53;63.47
61674;BME280;47573;43.832;5.974;2023-11-18T02:19:30;95745.63;;;23.50;63.52
61674;BME280;47573;43.832;5.974;2023-11-18T02:26:20;95731.91;;;23.45;63.06
61674;BME280;47573;43.832;5.974;2023-11-18T02:33:07;95747.66;;;23.43;63.09
61674;BME280;47573;43.832;5.974;2023-11-18T02:40:00;95727.38;;;23.39;63.11
61674;BME280;47573;43.832;5.974;2023-11-18T02:46:45;95736.63;;;23.38;63.03
61674;BME280;47573;43.832;5.974;2023-11-18T02:53:26;95729.97;;;23.34;62.74
61674;BME280;47573;43.832;5.974;2023-11-18T03:00:07;95740.88;;;23.34;62.87
61674;BME280;47573;43.832;5.974;2023-11-18T03:06:59;95735.03;;;23.31;63.01
61674;BME280;47573;43.832;5.974;2023-11-18T03:13:40;95723.78;;;23.27;62.78
61674;BME280;47573;43.832;5.974;2023-11-18T03:20:22;95711.22;;;23.26;62.52
61674;BME280;47573;43.832;5.974;2023-11-18T03:27:05;95717.13;;;23.23;62.37
61674;BME280;47573;43.832;5.974;2023-11-18T03:33:45;95706.22;;;23.23;62.37
61674;BME280;47573;43.832;5.974;2023-11-18T03:40:26;95716.44;;;23.16;62.14
61674;BME280;47573;43.832;5.974;2023-11-18T03:47:10;95717.41;;;22.80;57.82
61674;BME280;47573;43.832;5.974;2023-11-18T03:53:51;95702.28;;;22.96;57.95
61674;BME280;47573;43.832;5.974;2023-11-18T04:00:32;95707.03;;;23.00;58.55
61674;BME280;47573;43.832;5.974;2023-11-18T04:07:14;95721.16;;;23.09;59.00
61674;BME280;47573;43.832;5.974;2023-11-18T04:13:55;95722.81;;;23.10;59.21
61674;BME280;47573;43.832;5.974;2023-11-18T04:20:36;95713.47;;;23.06;59.72
61674;BME280;47573;43.832;5.974;2023-11-18T04:27:18;95692.97;;;23.03;59.95
61674;BME280;47573;43.832;5.974;2023-11-18T04:33:59;95670.56;;;23.01;59.82
61674;BME280;47573;43.832;5.974;2023-11-18T04:40:40;95690.09;;;22.98;60.03
61674;BME280;47573;43.832;5.974;2023-11-18T04:47:23;95705.84;;;22.96;60.39
61674;BME280;47573;43.832;5.974;2023-11-18T04:54:05;95686.41;;;22.93;60.29
61674;BME280;47573;43.832;5.974;2023-11-18T05:00:48;95698.84;;;22.89;60.08
61674;BME280;47573;43.832;5.974;2023-11-18T05:07:30;95696.81;;;22.84;60.35
61674;BME280;47573;43.832;5.974;2023-11-18T05:14:11;95691.63;;;22.83;60.38
61674;BME280;47573;43.832;5.974;2023-11-18T05:20:51;95702.13;;;22.79;60.92
61674;BME280;47573;43.832;5.974;2023-11-18T05:27:33;95719.19;;;22.75;61.04
61674;BME280;47573;43.832;5.974;2023-11-18T05:34:14;95731.34;;;22.72;60.98
61674;BME280;47573;43.832;5.974;2023-11-18T05:40:55;95711.31;;;22.67;61.45
61674;BME280;47573;43.832;5.974;2023-11-18T05:47:42;95705.75;;;22.62;61.22
61674;BME280;47573;43.832;5.974;2023-11-18T05:54:23;95722.69;;;22.64;61.38
61674;BME280;47573;43.832;5.974;2023-11-18T06:01:04;95723.28;;;22.66;61.32
61674;BME280;47573;43.832;5.974;2023-11-18T06:07:47;95739.13;;;22.69;61.49
61674;BME280;47573;43.832;5.974;2023-11-18T06:14:27;95744.22;;;22.65;61.07
61674;BME280;47573;43.832;5.974;2023-11-18T06:21:10;95744.91;;;22.61;61.04
61674;BME280;47573;43.832;5.974;2023-11-18T06:27:53;95742.31;;;22.66;60.78
61674;BME280;47573;43.832;5.974;2023-11-18T06:34:34;95750.34;;;22.61;61.03
61674;BME280;47573;43.832;5.974;2023-11-18T06:41:14;95741.13;;;22.62;60.75
61674;BME280;47573;43.832;5.974;2023-11-18T06:47:58;95741.13;;;22.62;60.57
61674;BME280;47573;43.832;5.974;2023-11-18T06:54:40;95759.09;;;22.63;60.70
61674;BME280;47573;43.832;5.974;2023-11-18T07:01:21;95758.56;;;22.72;60.14
61674;BME280;47573;43.832;5.974;2023-11-18T07:08:04;95754.19;;;22.71;59.85
61674;BME280;47573;43.832;5.974;2023-11-18T07:14:44;95766.25;;;22.75;59.64
61674;BME280;47573;43.832;5.974;2023-11-18T07:21:25;95771.34;;;22.72;59.91
61674;BME280;47573;43.832;5.974;2023-11-18T07:28:07;95786.59;;;22.91;59.01
61674;BME280;47573;43.832;5.974;2023-11-18T07:34:49;95769.47;;;23.13;57.80
61674;BME280;47573;43.832;5.974;2023-11-18T07:41:31;95783.00;;;23.20;58.02
61674;BME280;47573;43.832;5.974;2023-11-18T07:48:13;95779.19;;;23.21;57.99
61674;BME280;47573;43.832;5.974;2023-11-18T07:54:57;95794.69;;;23.39;57.15
61674;BME280;47573;43.832;5.974;2023-11-18T08:01:40;95797.75;;;23.42;56.90
61674;BME280;47573;43.832;5.974;2023-11-18T08:08:22;95816.59;;;23.44;56.59
61674;BME280;47573;43.832;5.974;2023-11-18T08:15:03;95814.38;;;23.52;56.52
61674;BME280;47573;43.832;5.974;2023-11-18T08:21:44;95812.63;;;23.58;56.12
61674;BME280;47573;43.832;5.974;2023-11-18T08:28:26;95818.06;;;23.58;56.31
61674;BME280;47573;43.832;5.974;2023-11-18T08:35:07;95828.84;;;23.64;55.84
61674;BME280;47573;43.832;5.974;2023-11-18T08:41:48;95843.06;;;23.66;56.10
61674;BME280;47573;43.832;5.974;2023-11-18T08:48:32;95829.56;;;23.71;55.60
61674;BME280;47573;43.832;5.974;2023-11-18T08:55:15;95830.75;;;23.75;56.03
61674;BME280;47573;43.832;5.974;2023-11-18T09:02:01;95833.03;;;23.90;55.40
61674;BME280;47573;43.832;5.974;2023-11-18T09:08:48;95841.44;;;23.88;55.08
61674;BME280;47573;43.832;5.974;2023-11-18T09:15:34;95846.56;;;23.96;54.71
61674;BME280;47573;43.832;5.974;2023-11-18T09:22:19;95836.09;;;23.93;54.88
61674;BME280;47573;43.832;5.974;2023-11-18T09:29:01;95853.44;;;23.99;54.55
61674;BME280;47573;43.832;5.974;2023-11-18T09:35:44;95853.19;;;24.01;54.60
61674;BME280;47573;43.832;5.974;2023-11-18T09:42:25;95841.84;;;24.04;54.01
61674;BME280;47573;43.832;5.974;2023-11-18T09:49:15;95851.69;;;24.05;54.02
61674;BME280;47573;43.832;5.974;2023-11-18T09:56:03;95854.53;;;24.10;54.13
61674;BME280;47573;43.832;5.974;2023-11-18T10:02:48;95848.59;;;24.13;53.86
61674;BME280;47573;43.832;5.974;2023-11-18T10:09:31;95844.81;;;24.14;54.02
61674;BME280;47573;43.832;5.974;2023-11-18T10:16:17;95848.13;;;24.16;53.85
61674;BME280;47573;43.832;5.974;2023-11-18T10:23:09;95864.50;;;24.16;53.97
61674;BME280;47573;43.832;5.974;2023-11-18T10:29:55;95859.75;;;24.23;54.00
61674;BME280;47573;43.832;5.974;2023-11-18T10:36:36;95841.72;;;24.22;53.43
61674;BME280;47573;43.832;5.974;2023-11-18T10:43:16;95838.50;;;24.25;53.49
61674;BME280;47573;43.832;5.974;2023-11-18T10:49:58;95839.09;;;24.27;53.44
61674;BME280;47573;43.832;5.974;2023-11-18T10:56:46;95833.63;;;24.27;53.42
61674;BME280;47573;43.832;5.974;2023-11-18T11:03:27;95823.31;;;24.29;49.57
61674;BME280;47573;43.832;5.974;2023-11-18T11:10:15;95811.78;;;24.27;49.29
61674;BME280;47573;43.832;5.974;2023-11-18T11:16:56;95815.63;;;24.26;46.11
61674;BME280;47573;43.832;5.974;2023-11-18T11:23:49;95821.06;;;24.26;47.36
61674;BME280;47573;43.832;5.974;2023-11-18T11:30:42;95817.97;;;24.34;50.21
61674;BME280;47573;43.832;5.974;2023-11-18T11:37:25;95819.28;;;24.31;49.75
61674;BME280;47573;43.832;5.974;2023-11-18T11:44:12;95788.53;;;24.36;50.22
61674;BME280;47573;43.832;5.974;2023-11-18T11:51:02;95791.75;;;24.33;48.95
61674;BME280;47573;43.832;5.974;2023-11-18T11:57:50;95790.56;;;24.40;49.19
61674;BME280;47573;43.832;5.974;2023-11-18T12:04:34;95791.38;;;24.41;48.91
61674;BME280;47573;43.832;5.974;2023-11-18T12:11:19;95793.03;;;24.42;48.33
61674;BME280;47573;43.832;5.974;2023-11-18T12:18:09;95791.38;;;24.41;48.23
61674;BME280;47573;43.832;5.974;2023-11-18T12:40:26;95785.56;;;24.37;48.30
61674;BME280;47573;43.832;5.974;2023-11-18T12:47:16;95770.28;;;24.36;47.97
61674;BME280;47573;43.832;5.974;2023-11-18T12:54:03;95762.41;;;24.40;48.01
61674;BME280;47573;43.832;5.974;2023-11-18T13:00:47;95760.06;;;24.32;47.18
61674;BME280;47573;43.832;5.974;2023-11-18T13:07:29;95750.22;;;24.31;47.29
61674;BME280;47573;43.832;5.974;2023-11-18T13:14:10;95743.69;;;24.32;46.79
61674;BME280;47573;43.832;5.974;2023-11-18T13:20:55;95751.63;;;24.33;47.62
61674;BME280;47573;43.832;5.974;2023-11-18T13:27:39;95734.91;;;24.30;47.09
61674;BME280;47573;43.832;5.974;2023-11-18T13:34:20;95725.81;;;24.24;45.53
61674;BME280;47573;43.832;5.974;2023-11-18T13:41:01;95722.34;;;24.29;43.47
61674;BME280;47573;43.832;5.974;2023-11-18T13:47:50;95717.84;;;24.23;42.40
61674;BME280;47573;43.832;5.974;2023-11-18T13:54:32;95717.03;;;24.22;46.08
61674;BME280;47573;43.832;5.974;2023-11-18T14:01:13;95731.41;;;24.18;43.55
61674;BME280;47573;43.832;5.974;2023-11-18T14:07:57;95727.59;;;24.19;45.99
61674;BME280;47573;43.832;5.974;2023-11-18T14:14:39;95735.19;;;24.17;44.95
61674;BME280;47573;43.832;5.974;2023-11-18T14:21:22;95735.91;;;24.12;41.34
61674;BME280;47573;43.832;5.974;2023-11-18T14:28:04;95727.50;;;24.14;42.98
61674;BME280;47573;43.832;5.974;2023-11-18T14:34:45;95723.59;;;24.10;42.62
61674;BME280;47573;43.832;5.974;2023-11-18T14:41:25;95726.06;;;24.00;40.44
61674;BME280;47573;43.832;5.974;2023-11-18T14:48:08;95724.16;;;24.00;40.30
61674;BME280;47573;43.832;5.974;2023-11-18T14:54:48;95722.97;;;23.96;39.31
61674;BME280;47573;43.832;5.974;2023-11-18T15:01:29;95727.00;;;23.93;39.43
61674;BME280;47573;43.832;5.974;2023-11-18T15:08:11;95739.22;;;24.14;44.12
61674;BME280;47573;43.832;5.974;2023-11-18T15:14:53;95750.38;;;24.13;45.10
61674;BME280;47573;43.832;5.974;2023-11-18T15:21:33;95762.38;;;24.12;45.72
61674;BME280;47573;43.832;5.974;2023-11-18T15:28:15;95755.00;;;24.12;46.30
61674;BME280;47573;43.832;5.974;2023-11-18T15:34:57;95759.84;;;24.10;46.63
61674;BME280;47573;43.832;5.974;2023-11-18T15:41:38;95760.94;;;24.09;46.96
61674;BME280;47573;43.832;5.974;2023-11-18T15:48:20;95750.88;;;24.10;47.02
61674;BME280;47573;43.832;5.974;2023-11-18T15:55:02;95755.16;;;24.06;47.54
61674;BME280;47573;43.832;5.974;2023-11-18T16:01:43;95753.00;;;24.08;47.67
61674;BME280;47573;43.832;5.974;2023-11-18T16:08:25;95757.72;;;24.24;48.75
61674;BME280;47573;43.832;5.974;2023-11-18T16:15:06;95749.63;;;24.29;49.66
61674;BME280;47573;43.832;5.974;2023-11-18T16:21:48;95773.84;;;24.37;50.01
61674;BME280;47573;43.832;5.974;2023-11-18T16:28:33;95786.53;;;24.43;50.61
61674;BME280;47573;43.832;5.974;2023-11-18T16:35:13;95790.03;;;24.55;51.58
61674;BME280;47573;43.832;5.974;2023-11-18T16:41:54;95797.16;;;24.56;52.30
61674;BME280;47573;43.832;5.974;2023-11-18T16:48:36;95784.19;;;24.63;52.43
61674;BME280;47573;43.832;5.974;2023-11-18T16:55:17;95797.13;;;24.67;53.41
61674;BME280;47573;43.832;5.974;2023-11-18T17:01:58;95780.84;;;24.72;54.08
61674;BME280;47573;43.832;5.974;2023-11-18T17:08:40;95793.06;;;24.82;54.48
61674;BME280;47573;43.832;5.974;2023-11-18T17:15:20;95787.94;;;24.85;55.13
61674;BME280;47573;43.832;5.974;2023-11-18T17:22:01;95784.22;;;24.91;55.07
61674;BME280;47573;43.832;5.974;2023-11-18T17:28:45;95790.13;;;25.00;55.54
61674;BME280;47573;43.832;5.974;2023-11-18T17:35:26;95796.44;;;25.00;55.47
61674;BME280;47573;43.832;5.974;2023-11-18T17:42:07;95784.44;;;25.01;55.67
61674;BME280;47573;43.832;5.974;2023-11-18T17:48:49;95782.88;;;25.05;56.18
61674;BME280;47573;43.832;5.974;2023-11-18T18:02:10;95789.00;;;25.12;56.70
61674;BME280;47573;43.832;5.974;2023-11-18T18:08:54;95795.06;;;25.14;56.98
61674;BME280;47573;43.832;5.974;2023-11-18T18:15:35;95819.19;;;25.17;57.13
61674;BME280;47573;43.832;5.974;2023-11-18T18:22:16;95805.59;;;25.22;57.31
61674;BME280;47573;43.832;5.974;2023-11-18T18:28:58;95808.91;;;25.24;57.55
61674;BME280;47573;43.832;5.974;2023-11-18T18:35:39;95819.38;;;25.27;57.76
61674;BME280;47573;43.832;5.974;2023-11-18T18:42:20;95810.09;;;25.28;57.93
61674;BME280;47573;43.832;5.974;2023-11-18T18:49:02;95812.31;;;25.31;57.86
61674;BME280;47573;43.832;5.974;2023-11-18T18:55:43;95820.84;;;25.35;58.12
61674;BME280;47573;43.832;5.974;2023-11-18T19:02:24;95829.63;;;25.37;58.07
61674;BME280;47573;43.832;5.974;2023-11-18T19:09:06;95830.47;;;25.37;58.53
61674;BME280;47573;43.832;5.974;2023-11-18T19:15:48;95832.16;;;25.38;58.54
61674;BME280;47573;43.832;5.974;2023-11-18T19:22:33;95813.13;;;25.43;58.95
61674;BME280;47573;43.832;5.974;2023-11-18T19:29:15;95838.31;;;25.45;58.84
61674;BME280;47573;43.832;5.974;2023-11-18T19:35:55;95819.75;;;25.47;59.01
61674;BME280;47573;43.832;5.974;2023-11-18T19:42:36;95820.91;;;25.51;59.26
61674;BME280;47573;43.832;5.974;2023-11-18T19:49:19;95816.88;;;25.54;59.55
61674;BME280;47573;43.832;5.974;2023-11-18T19:55:59;95819.91;;;25.58;59.42
61674;BME280;47573;43.832;5.974;2023-11-18T20:02:43;95803.88;;;25.61;59.51
61674;BME280;47573;43.832;5.974;2023-11-18T20:09:25;95805.50;;;25.62;59.74
61674;BME280;47573;43.832;5.974;2023-11-18T20:16:07;95809.66;;;25.65;59.76
61674;BME280;47573;43.832;5.974;2023-11-18T20:22:49;95806.94;;;25.65;59.28
61674;BME280;47573;43.832;5.974;2023-11-18T20:29:34;95808.91;;;25.69;59.29
61674;BME280;47573;43.832;5.974;2023-11-18T20:36:15;95805.88;;;25.66;60.02
61674;BME280;47573;43.832;5.974;2023-11-18T20:42:56;95813.66;;;25.74;59.90
61674;BME280;47573;43.832;5.974;2023-11-18T20:49:38;95816.44;;;25.79;60.26
61674;BME280;47573;43.832;5.974;2023-11-18T20:56:19;95815.41;;;25.80;60.70
61674;BME280;47573;43.832;5.974;2023-11-18T21:03:01;95812.13;;;25.83;61.26
61674;BME280;47573;43.832;5.974;2023-11-18T21:09:44;95802.88;;;25.84;61.64
61674;BME280;47573;43.832;5.974;2023-11-18T21:16:24;95802.88;;;25.84;61.53
61674;BME280;47573;43.832;5.974;2023-11-18T21:23:05;95801.19;;;25.83;61.92
61674;BME280;47573;43.832;5.974;2023-11-18T21:29:47;95796.06;;;25.86;61.36
61674;BME280;47573;43.832;5.974;2023-11-18T21:36:28;95790.34;;;25.71;60.90
61674;BME280;47573;43.832;5.974;2023-11-18T21:43:08;95794.25;;;25.59;60.42
61674;BME280;47573;43.832;5.974;2023-11-18T21:49:51;95800.13;;;25.50;60.66
61674;BME280;47573;43.832;5.974;2023-11-18T21:56:32;95794.56;;;25.45;60.87
61674;BME280;47573;43.832;5.974;2023-11-18T22:03:13;95793.41;;;25.41;60.56
61674;BME280;47573;43.832;5.974;2023-11-18T22:09:55;95788.88;;;25.35;60.59
61674;BME280;47573;43.832;5.974;2023-11-18T22:16:35;95785.50;;;25.28;60.58
61674;BME280;47573;43.832;5.974;2023-11-18T22:23:16;95784.88;;;25.26;60.54
61674;BME280;47573;43.832;5.974;2023-11-18T22:29:58;95773.03;;;25.21;60.39
61674;BME280;47573;43.832;5.974;2023-11-18T22:36:38;95775.94;;;25.14;60.71
61674;BME280;47573;43.832;5.974;2023-11-18T22:43:20;95770.88;;;25.06;60.50
61674;BME280;47573;43.832;5.974;2023-11-18T22:50:03;95777.91;;;25.02;60.46
61674;BME280;47573;43.832;5.974;2023-11-18T22:56:45;95773.88;;;24.93;60.21
61674;BME280;47573;43.832;5.974;2023-11-18T23:03:27;95772.72;;;24.89;60.80
61674;BME280;47573;43.832;5.974;2023-11-18T23:10:15;95774.53;;;24.84;60.38
61674;BME280;47573;43.832;5.974;2023-11-18T23:16:56;95772.53;;;24.79;60.46
61674;BME280;47573;43.832;5.974;2023-11-18T23:23:38;95771.94;;;24.77;60.40
61674;BME280;47573;43.832;5.974;2023-11-18T23:30:20;95761.38;;;24.69;60.42
61674;BME280;47573;43.832;5.974;2023-11-18T23:37:01;95769.50;;;24.64;60.46
61674;BME280;47573;43.832;5.974;2023-11-18T23:43:41;95766.66;;;24.59;60.28
61674;BME280;47573;43.832;5.974;2023-11-18T23:50:24;95760.00;;;24.55;60.02
61674;BME280;47573;43.832;5.974;2023-11-18T23:57:07;95758.91;;;24.56;60.12
